createdAt,value
2023-03-30T00:00:01.056Z,40.90
2023-03-30T00:02:38.833Z,43.70
2023-03-30T00:05:07.687Z,40.00
2023-03-30T00:07:38.536Z,33.20
2023-03-30T00:10:07.118Z,36.50
2023-03-30T00:12:36.997Z,34.20
2023-03-30T00:15:07.223Z,32.60
2023-03-30T00:17:44.590Z,32.30
2023-03-30T00:20:14.117Z,33.20
2023-03-30T00:22:50.170Z,30.60
2023-03-30T00:25:18.575Z,31.30
2023-03-30T00:27:48.921Z,28.40
2023-03-30T00:30:18.250Z,30.80
2023-03-30T00:32:50.805Z,32.00
2023-03-30T00:35:21.319Z,34.20
2023-03-30T00:37:49.719Z,31.50
2023-03-30T00:40:21.362Z,28.50
2023-03-30T00:43:20.012Z,30.70
2023-03-30T00:45:54.209Z,26.70
2023-03-30T00:48:24.678Z,27.40
2023-03-30T00:50:52.815Z,27.10
2023-03-30T00:53:25.549Z,26.70
2023-03-30T00:55:54.730Z,26.00
2023-03-30T00:58:23.303Z,25.30
2023-03-30T01:00:58.315Z,25.70
2023-03-30T01:03:32.646Z,23.70
2023-03-30T01:06:03.149Z,26.20
2023-03-30T01:08:34.378Z,27.20
2023-03-30T01:11:03.649Z,27.10
2023-03-30T01:13:34.543Z,30.10
2023-03-30T01:16:30.422Z,30.60
2023-03-30T01:19:32.456Z,30.30
2023-03-30T01:22:12.961Z,29.50
2023-03-30T01:25:03.090Z,28.40
2023-03-30T01:27:46.195Z,27.90
2023-03-30T01:30:18.306Z,30.30
2023-03-30T01:33:31.608Z,28.90
2023-03-30T01:36:20.069Z,25.30
2023-03-30T01:39:11.583Z,28.40
2023-03-30T01:42:00.151Z,28.30
2023-03-30T01:44:40.939Z,29.10
2023-03-30T01:47:17.042Z,26.20
2023-03-30T01:49:50.107Z,24.40
2023-03-30T01:52:44.777Z,29.80
2023-03-30T01:55:42.492Z,23.50
2023-03-30T01:58:22.342Z,25.40
2023-03-30T02:00:56.054Z,25.90
2023-03-30T02:03:29.476Z,27.80
2023-03-30T02:06:04.190Z,30.60
2023-03-30T02:08:34.886Z,28.90
2023-03-30T02:11:04.907Z,27.70
2023-03-30T02:13:35.800Z,30.10
2023-03-30T02:16:10.042Z,27.60
2023-03-30T02:18:38.860Z,24.40
2023-03-30T02:21:10.104Z,24.00
2023-03-30T02:23:41.232Z,23.60
2023-03-30T02:26:10.613Z,23.60
2023-03-30T02:31:14.664Z,25.50
2023-03-30T02:34:02.782Z,25.20
2023-03-30T02:36:43.730Z,28.00
2023-03-30T02:39:27.298Z,34.10
2023-03-30T02:42:21.552Z,32.00
2023-03-30T02:45:09.154Z,30.50
2023-03-30T02:47:54.305Z,32.50
2023-03-30T02:50:29.374Z,30.80
2023-03-30T02:53:23.504Z,25.80
2023-03-30T02:56:06.812Z,28.30
2023-03-30T02:58:50.134Z,23.90
2023-03-30T03:01:23.769Z,25.00
2023-03-30T03:04:00.574Z,23.00
2023-03-30T03:06:34.033Z,21.70
2023-03-30T03:09:03.516Z,20.30
2023-03-30T03:11:32.911Z,24.60
2023-03-30T03:14:01.466Z,23.90
2023-03-30T03:16:31.862Z,25.90
2023-03-30T03:19:09.942Z,20.70
2023-03-30T03:21:45.542Z,22.10
2023-03-30T03:24:17.384Z,20.60
2023-03-30T03:27:16.452Z,38.20
2023-03-30T03:30:05.785Z,33.10
2023-03-30T03:32:40.742Z,41.70
2023-03-30T03:35:09.566Z,44.60
2023-03-30T03:37:37.905Z,53.20
2023-03-30T03:40:08.228Z,54.90
2023-03-30T03:42:36.898Z,54.80
2023-03-30T03:45:13.837Z,54.50
2023-03-30T03:47:57.209Z,48.30
2023-03-30T03:50:45.673Z,43.20
2023-03-30T03:53:15.125Z,37.70
2023-03-30T03:55:44.139Z,40.90
2023-03-30T03:58:16.850Z,34.50
2023-03-30T04:00:46.598Z,32.50
2023-03-30T04:03:19.048Z,29.40
2023-03-30T04:05:49.921Z,30.60
2023-03-30T04:08:18.345Z,30.00
2023-03-30T04:10:47.478Z,32.30
2023-03-30T04:13:19.626Z,20.40
2023-03-30T04:16:08.889Z,24.60
2023-03-30T04:19:03.955Z,28.60
2023-03-30T04:21:53.109Z,32.80
2023-03-30T04:24:39.764Z,40.20
2023-03-30T04:27:28.784Z,32.60
2023-03-30T04:30:33.204Z,37.20
2023-03-30T04:33:21.369Z,43.90
2023-03-30T04:36:07.273Z,41.50
2023-03-30T04:39:01.661Z,38.60
2023-03-30T04:42:08.364Z,38.60
2023-03-30T04:44:58.853Z,59.40
2023-03-30T04:47:50.922Z,65.00
2023-03-30T04:50:25.426Z,67.30
2023-03-30T04:53:24.847Z,59.90
2023-03-30T04:56:19.418Z,69.00
2023-03-30T04:59:26.278Z,75.60
2023-03-30T05:02:27.283Z,89.80
2023-03-30T05:05:16.667Z,64.20
2023-03-30T05:08:03.618Z,48.10
2023-03-30T05:10:50.348Z,45.00
2023-03-30T05:13:31.744Z,96.10
2023-03-30T05:16:18.639Z,61.80
2023-03-30T05:19:17.551Z,89.30
2023-03-30T05:22:07.311Z,82.50
2023-03-30T05:24:58.912Z,85.70
2023-03-30T05:27:46.273Z,58.20
2023-03-30T05:30:38.130Z,70.80
2023-03-30T05:33:14.117Z,47.30
2023-03-30T05:36:20.858Z,32.60
2023-03-30T05:41:40.677Z,84.00
2023-03-30T05:44:33.249Z,48.70
2023-03-30T05:47:22.198Z,41.80
2023-03-30T05:50:18.012Z,39.20
2023-03-30T05:53:00.563Z,31.30
2023-03-30T05:55:49.337Z,47.30
2023-03-30T05:58:38.696Z,49.30
2023-03-30T06:01:09.585Z,40.50
2023-03-30T06:03:42.432Z,51.10
2023-03-30T06:06:12.373Z,50.20
2023-03-30T06:08:42.120Z,35.20
2023-03-30T06:11:13.845Z,45.10
2023-03-30T06:13:46.803Z,51.90
2023-03-30T06:16:18.565Z,62.10
2023-03-30T06:18:47.617Z,58.80
2023-03-30T06:21:16.462Z,61.00
2023-03-30T06:24:07.884Z,73.70
2023-03-30T06:26:39.242Z,60.40
2023-03-30T06:29:08.951Z,64.80
2023-03-30T06:31:37.813Z,61.30
2023-03-30T06:34:44.594Z,75.50
2023-03-30T06:37:14.319Z,44.10
2023-03-30T06:39:42.599Z,40.30
2023-03-30T06:42:12.223Z,60.80
2023-03-30T06:45:19.660Z,44.10
2023-03-30T06:50:36.979Z,39.50
2023-03-30T06:53:14.971Z,37.70
2023-03-30T06:55:48.167Z,31.90
2023-03-30T06:58:27.434Z,41.90
2023-03-30T07:00:57.727Z,34.90
2023-03-30T07:03:32.175Z,34.90
2023-03-30T07:06:09.710Z,41.00
2023-03-30T07:08:40.531Z,41.90
2023-03-30T07:11:10.181Z,41.70
2023-03-30T07:13:45.466Z,25.30
2023-03-30T07:16:13.908Z,27.40
2023-03-30T07:18:44.760Z,32.90
2023-03-30T07:21:14.101Z,25.80
2023-03-30T07:23:45.865Z,27.30
2023-03-30T07:26:32.147Z,29.70
2023-03-30T07:29:06.895Z,24.70
2023-03-30T07:31:38.570Z,18.30
2023-03-30T07:34:07.898Z,20.60
2023-03-30T07:36:40.081Z,18.30
2023-03-30T07:39:11.351Z,19.40
2023-03-30T07:41:41.588Z,15.10
2023-03-30T07:44:09.824Z,16.80
2023-03-30T07:46:41.654Z,14.40
2023-03-30T07:51:43.633Z,16.60
2023-03-30T07:54:21.025Z,18.80
2023-03-30T07:57:14.906Z,22.10
2023-03-30T07:59:44.112Z,33.70
2023-03-30T08:02:31.922Z,23.30
2023-03-30T08:05:05.093Z,13.60
2023-03-30T08:07:47.936Z,14.10
2023-03-30T08:10:22.513Z,12.50
2023-03-30T08:12:51.752Z,10.60
2023-03-30T08:15:21.105Z,14.20
2023-03-30T08:17:49.512Z,9.70
2023-03-30T08:20:20.536Z,10.90
2023-03-30T08:22:49.104Z,10.80
2023-03-30T08:25:17.752Z,10.90
2023-03-30T08:27:47.612Z,17.40
2023-03-30T08:30:16.626Z,10.60
2023-03-30T08:32:46.607Z,9.70
2023-03-30T08:35:16.074Z,12.90
2023-03-30T08:37:45.069Z,8.50
2023-03-30T08:40:15.447Z,5.50
2023-03-30T08:42:52.015Z,5.50
2023-03-30T08:45:25.275Z,4.10
2023-03-30T08:47:53.660Z,6.20
2023-03-30T08:50:32.409Z,8.00
2023-03-30T08:53:03.948Z,6.00
2023-03-30T08:55:37.304Z,6.40
2023-03-30T08:58:40.479Z,7.70
2023-03-30T09:01:38.106Z,9.20
2023-03-30T09:04:17.852Z,11.40
2023-03-30T09:06:51.462Z,4.40
2023-03-30T09:09:21.463Z,4.70
2023-03-30T09:12:08.887Z,2.70
2023-03-30T09:14:42.163Z,3.70
2023-03-30T09:17:23.275Z,3.50
2023-03-30T09:19:57.236Z,5.00
2023-03-30T09:22:30.076Z,5.00
2023-03-30T09:25:05.749Z,9.10
2023-03-30T09:28:12.409Z,5.90
2023-03-30T09:30:47.136Z,4.40
2023-03-30T09:33:30.026Z,4.10
2023-03-30T09:36:13.229Z,8.80
2023-03-30T09:38:43.338Z,8.50
2023-03-30T09:41:34.325Z,6.50
2023-03-30T09:44:11.551Z,8.50
2023-03-30T09:46:40.595Z,7.10
2023-03-30T09:49:16.043Z,6.10
2023-03-30T09:51:53.940Z,3.30
2023-03-30T09:54:22.352Z,4.00
2023-03-30T09:56:54.361Z,6.30
2023-03-30T09:59:37.414Z,6.20
2023-03-30T10:02:28.004Z,4.00
2023-03-30T10:04:58.607Z,5.60
2023-03-30T10:07:48.100Z,4.00
2023-03-30T10:10:26.637Z,3.20
2023-03-30T10:13:15.133Z,13.50
2023-03-30T10:15:45.123Z,7.10
2023-03-30T10:18:15.863Z,7.30
2023-03-30T10:20:54.652Z,3.70
2023-03-30T10:23:24.984Z,4.40
2023-03-30T10:25:54.771Z,8.00
2023-03-30T10:28:27.364Z,6.40
2023-03-30T10:31:07.153Z,5.50
2023-03-30T10:33:40.926Z,8.80
2023-03-30T10:36:09.810Z,5.00
2023-03-30T10:38:40.455Z,5.40
2023-03-30T10:41:11.395Z,5.10
2023-03-30T10:43:41.387Z,13.60
2023-03-30T10:46:20.475Z,9.10
2023-03-30T10:49:22.169Z,6.80
2023-03-30T10:51:57.750Z,22.60
2023-03-30T10:54:31.574Z,10.30
2023-03-30T10:58:49.578Z,6.30
2023-03-30T11:01:28.323Z,5.50
2023-03-30T11:04:09.419Z,5.10
2023-03-30T11:06:49.100Z,6.00
2023-03-30T11:09:20.096Z,8.70
2023-03-30T11:11:52.865Z,3.50
2023-03-30T11:14:37.879Z,3.70
2023-03-30T11:17:11.588Z,4.80
2023-03-30T11:20:17.040Z,3.30
2023-03-30T11:22:54.930Z,4.20
2023-03-30T11:25:26.124Z,4.50
2023-03-30T11:28:41.177Z,4.10
2023-03-30T11:31:17.802Z,5.40
2023-03-30T11:34:17.993Z,4.00
2023-03-30T11:36:56.020Z,3.80
2023-03-30T11:39:32.645Z,9.20
2023-03-30T11:42:07.517Z,6.70
2023-03-30T11:44:37.527Z,3.70
2023-03-30T11:47:28.600Z,4.20
2023-03-30T11:50:02.555Z,9.20
2023-03-30T11:52:46.870Z,6.60
2023-03-30T11:55:33.013Z,5.40
2023-03-30T11:58:23.843Z,8.50
2023-03-30T12:00:54.110Z,4.60
2023-03-30T12:03:30.521Z,3.40
2023-03-30T12:06:24.693Z,5.00
2023-03-30T12:09:09.690Z,6.00
2023-03-30T12:12:29.453Z,4.40
2023-03-30T12:15:18.155Z,5.30
2023-03-30T12:18:00.023Z,7.50
2023-03-30T12:20:34.128Z,43.10
2023-03-30T12:23:29.741Z,4.20
2023-03-30T12:26:27.318Z,4.20
2023-03-30T12:29:44.325Z,5.20
2023-03-30T12:31:59.244Z,6.70
2023-03-30T12:34:28.684Z,8.20
2023-03-30T12:37:05.978Z,12.10
2023-03-30T12:40:06.261Z,11.40
2023-03-30T12:42:47.071Z,6.90
2023-03-30T12:45:15.538Z,6.20
2023-03-30T12:48:18.741Z,6.50
2023-03-30T12:51:10.722Z,3.70
2023-03-30T12:54:02.388Z,2.30
2023-03-30T12:57:07.732Z,12.20
2023-03-30T12:59:56.905Z,3.40
2023-03-30T13:02:46.749Z,3.20
2023-03-30T13:05:24.227Z,5.10
2023-03-30T13:07:54.863Z,8.20
2023-03-30T13:10:29.155Z,4.40
2023-03-30T13:12:58.310Z,2.70
2023-03-30T13:15:33.942Z,7.10
2023-03-30T13:18:04.502Z,4.80
2023-03-30T13:20:37.706Z,7.00
2023-03-30T13:23:12.656Z,4.00
2023-03-30T13:25:47.568Z,5.40
2023-03-30T13:28:54.934Z,4.90
2023-03-30T13:31:34.496Z,2.30
2023-03-30T13:34:20.436Z,4.40
2023-03-30T13:37:09.482Z,8.10
2023-03-30T13:39:42.388Z,4.90
2023-03-30T13:42:23.481Z,5.30
2023-03-30T13:45:13.070Z,7.80
2023-03-30T13:48:14.537Z,8.00
2023-03-30T13:50:56.073Z,4.00
2023-03-30T13:53:26.401Z,4.40
2023-03-30T13:55:54.579Z,4.80
2023-03-30T13:58:28.523Z,5.00
2023-03-30T14:01:07.752Z,5.40
2023-03-30T14:03:39.327Z,5.50
2023-03-30T14:06:15.453Z,6.60
2023-03-30T14:08:46.395Z,4.80
2023-03-30T14:11:22.732Z,6.70
2023-03-30T14:13:54.978Z,3.80
2023-03-30T14:16:25.112Z,4.50
2023-03-30T14:19:25.831Z,3.90
2023-03-30T14:21:58.315Z,2.40
2023-03-30T14:24:29.050Z,3.70
2023-03-30T14:27:13.930Z,4.20
2023-03-30T14:29:46.492Z,9.10
2023-03-30T14:32:16.036Z,9.30
2023-03-30T14:34:49.185Z,7.30
2023-03-30T14:37:21.175Z,5.50
2023-03-30T14:39:54.672Z,6.80
2023-03-30T14:42:27.672Z,8.70
2023-03-30T14:44:59.466Z,9.60
2023-03-30T14:47:28.053Z,12.20
2023-03-30T14:49:58.424Z,21.00
2023-03-30T14:52:53.122Z,13.00
2023-03-30T14:55:25.923Z,16.10
2023-03-30T14:57:56.055Z,25.90
2023-03-30T15:00:24.946Z,21.10
2023-03-30T15:02:55.637Z,12.70
2023-03-30T15:05:25.230Z,9.60
2023-03-30T15:07:59.377Z,21.90
2023-03-30T15:10:55.506Z,17.90
2023-03-30T15:13:34.505Z,18.00
2023-03-30T15:16:03.600Z,12.30
2023-03-30T15:18:41.829Z,16.60
2023-03-30T15:21:11.270Z,11.40
2023-03-30T15:23:41.130Z,13.90
2023-03-30T15:26:10.034Z,14.30
2023-03-30T15:28:47.553Z,11.20
2023-03-30T15:31:18.723Z,8.30
2023-03-30T15:33:54.131Z,10.30
2023-03-30T15:36:23.945Z,26.10
2023-03-30T15:38:59.223Z,27.60
2023-03-30T15:41:45.234Z,18.10
2023-03-30T15:44:21.306Z,13.30
2023-03-30T15:46:50.640Z,14.80
2023-03-30T15:49:23.420Z,24.40
2023-03-30T15:52:02.064Z,12.50
2023-03-30T15:54:34.661Z,7.20
2023-03-30T15:57:09.997Z,7.70
2023-03-30T15:59:49.444Z,17.20
2023-03-30T16:02:31.245Z,7.80
2023-03-30T16:05:03.307Z,7.00
2023-03-30T16:07:31.974Z,9.00
2023-03-30T16:10:06.098Z,5.70
2023-03-30T16:12:41.688Z,5.60
2023-03-30T16:15:16.966Z,12.90
2023-03-30T16:17:45.538Z,11.50
2023-03-30T16:20:15.728Z,11.90
2023-03-30T16:22:44.207Z,11.40
2023-03-30T16:25:12.421Z,9.00
2023-03-30T16:27:40.803Z,9.20
2023-03-30T16:30:37.787Z,10.10
2023-03-30T16:33:07.471Z,12.80
2023-03-30T16:35:35.952Z,9.70
2023-03-30T16:38:04.931Z,8.60
2023-03-30T16:40:34.934Z,9.40
2023-03-30T16:43:03.840Z,10.00
2023-03-30T16:45:32.487Z,8.20
2023-03-30T16:48:04.341Z,7.90
2023-03-30T16:50:43.764Z,8.30
2023-03-30T16:53:12.714Z,12.00
2023-03-30T16:55:41.127Z,7.80
2023-03-30T16:58:17.242Z,11.80
2023-03-30T17:00:51.274Z,6.80
2023-03-30T17:03:20.548Z,8.50
2023-03-30T17:05:53.636Z,12.40
2023-03-30T17:08:24.924Z,8.40
2023-03-30T17:10:54.742Z,9.20
2023-03-30T17:13:29.304Z,10.50
2023-03-30T17:16:17.313Z,9.10
2023-03-30T17:18:47.445Z,13.60
2023-03-30T17:21:18.471Z,9.20
2023-03-30T17:23:48.106Z,10.70
2023-03-30T17:26:17.163Z,13.30
2023-03-30T17:28:46.090Z,17.50
2023-03-30T17:31:22.198Z,31.70
2023-03-30T17:33:51.030Z,32.40
2023-03-30T17:36:22.920Z,29.80
2023-03-30T17:38:51.772Z,13.90
2023-03-30T17:41:20.389Z,14.30
2023-03-30T17:43:48.847Z,12.60
2023-03-30T17:46:18.347Z,13.30
2023-03-30T17:48:46.901Z,15.60
2023-03-30T17:51:15.560Z,16.20
2023-03-30T17:53:43.728Z,15.40
2023-03-30T17:56:13.085Z,11.40
2023-03-30T17:58:43.945Z,11.20
2023-03-30T18:01:12.977Z,16.10
2023-03-30T18:03:42.709Z,14.60
2023-03-30T18:06:11.719Z,14.10
2023-03-30T18:08:39.810Z,13.50
2023-03-30T18:11:08.101Z,11.20
2023-03-30T18:13:37.148Z,13.40
2023-03-30T18:16:06.221Z,21.30
2023-03-30T18:18:34.566Z,20.30
2023-03-30T18:21:04.526Z,19.10
2023-03-30T18:23:37.397Z,11.70
2023-03-30T18:26:11.114Z,11.40
2023-03-30T18:28:43.992Z,14.50
2023-03-30T18:31:12.943Z,15.40
2023-03-30T18:33:41.515Z,12.00
2023-03-30T18:36:13.491Z,10.10
2023-03-30T18:38:42.460Z,11.50
2023-03-30T18:41:13.057Z,12.40
2023-03-30T18:43:41.297Z,9.50
2023-03-30T18:46:11.251Z,10.80
2023-03-30T18:48:41.823Z,9.90
2023-03-30T18:51:11.847Z,13.10
2023-03-30T18:53:42.792Z,13.90
2023-03-30T18:56:11.704Z,12.90
2023-03-30T18:58:42.381Z,16.40
2023-03-30T19:01:16.129Z,12.50
2023-03-30T19:03:45.944Z,11.30
2023-03-30T19:06:17.014Z,14.20
2023-03-30T19:08:49.343Z,15.30
2023-03-30T19:11:21.915Z,12.10
2023-03-30T19:13:50.244Z,14.60
2023-03-30T19:16:22.456Z,15.20
2023-03-30T19:18:51.082Z,13.70
2023-03-30T19:21:19.586Z,12.10
2023-03-30T19:23:48.028Z,13.60
2023-03-30T19:26:16.863Z,11.10
2023-03-30T19:28:47.723Z,12.80
2023-03-30T19:31:16.603Z,13.50
2023-03-30T19:33:45.111Z,15.80
2023-03-30T19:36:14.181Z,13.90
2023-03-30T19:38:44.247Z,14.00
2023-03-30T19:44:08.695Z,12.30
2023-03-30T19:46:38.828Z,11.30
2023-03-30T19:49:07.096Z,9.10
2023-03-30T19:51:35.543Z,12.20
2023-03-30T19:54:08.857Z,11.00
2023-03-30T19:56:37.818Z,10.80
2023-03-30T19:59:08.209Z,8.10
2023-03-30T20:01:38.616Z,9.70
2023-03-30T20:04:07.501Z,8.90
2023-03-30T20:06:36.021Z,6.40
2023-03-30T20:09:07.742Z,5.50
2023-03-30T20:11:36.688Z,6.70
2023-03-30T20:14:04.913Z,5.90
2023-03-30T20:16:35.450Z,8.60
2023-03-30T20:19:12.881Z,7.50
2023-03-30T20:21:49.306Z,9.20
2023-03-30T20:24:17.410Z,7.20
2023-03-30T20:26:45.727Z,7.30
2023-03-30T20:29:14.452Z,10.80
2023-03-30T20:31:42.926Z,9.70
2023-03-30T20:34:13.086Z,7.90
2023-03-30T20:36:42.945Z,7.70
2023-03-30T20:39:14.165Z,10.00
2023-03-30T20:41:42.873Z,9.50
2023-03-30T20:44:14.026Z,9.40
2023-03-30T20:46:43.635Z,12.90
2023-03-30T20:49:12.159Z,11.40
2023-03-30T20:51:43.385Z,12.90
2023-03-30T20:54:11.902Z,10.10
2023-03-30T20:56:41.591Z,9.30
2023-03-30T20:59:09.767Z,11.60
2023-03-30T21:01:41.688Z,17.50
2023-03-30T21:04:10.633Z,9.80
2023-03-30T21:06:38.797Z,9.80
2023-03-30T21:09:10.107Z,10.10
2023-03-30T21:11:41.414Z,9.30
2023-03-30T21:14:12.579Z,10.80
2023-03-30T21:16:59.344Z,8.90
2023-03-30T21:19:27.502Z,9.50
2023-03-30T21:21:55.653Z,8.80
2023-03-30T21:24:24.907Z,11.10
2023-03-30T21:26:53.518Z,6.40
2023-03-30T21:29:23.814Z,7.80
2023-03-30T21:31:52.107Z,6.70
2023-03-30T21:34:22.251Z,8.10
2023-03-30T21:36:50.884Z,7.90
2023-03-30T21:39:19.636Z,6.80
2023-03-30T21:41:47.915Z,9.40
2023-03-30T21:44:16.156Z,8.00
2023-03-30T21:46:44.420Z,8.40
2023-03-30T21:49:12.800Z,12.50
2023-03-30T21:51:41.845Z,8.30
2023-03-30T21:54:11.827Z,9.30
2023-03-30T21:56:39.940Z,7.70
2023-03-30T21:59:08.063Z,10.70
2023-03-30T22:01:36.265Z,10.90
2023-03-30T22:04:06.310Z,6.70
2023-03-30T22:06:35.541Z,7.80
2023-03-30T22:09:03.893Z,7.50
2023-03-30T22:11:32.015Z,8.50
2023-03-30T22:14:03.986Z,11.40
2023-03-30T22:16:35.136Z,9.90
2023-03-30T22:19:13.544Z,8.20
2023-03-30T22:21:42.507Z,10.80
2023-03-30T22:24:11.282Z,10.00
2023-03-30T22:26:40.780Z,8.90
2023-03-30T22:29:09.053Z,7.80
2023-03-30T22:31:41.303Z,10.90
2023-03-30T22:34:10.171Z,9.40
2023-03-30T22:36:38.353Z,9.30
2023-03-30T22:39:07.012Z,10.60
2023-03-30T22:41:35.134Z,13.60
2023-03-30T22:44:03.482Z,10.90
2023-03-30T22:46:31.938Z,9.10
2023-03-30T22:49:00.294Z,11.30
2023-03-30T22:51:28.967Z,11.40
2023-03-30T22:53:58.753Z,11.70
2023-03-30T22:56:33.328Z,9.00
2023-03-30T22:59:02.147Z,7.80
2023-03-30T23:01:32.666Z,8.80
2023-03-30T23:04:05.021Z,40.00
2023-03-30T23:06:34.472Z,31.10
2023-03-30T23:09:04.318Z,27.30
2023-03-30T23:11:34.409Z,20.50
2023-03-30T23:26:03.248Z,71.10
2023-03-30T23:28:32.108Z,63.80
2023-03-30T23:31:08.563Z,49.30
2023-03-30T23:33:36.980Z,37.20
2023-03-30T23:36:09.540Z,30.70
2023-03-30T23:38:40.716Z,21.40
2023-03-30T23:41:09.010Z,21.90
2023-03-30T23:43:37.092Z,16.00
2023-03-30T23:46:05.466Z,18.00
2023-03-30T23:48:34.058Z,19.40
2023-03-30T23:51:02.680Z,10.60
2023-03-30T23:53:30.918Z,12.50
2023-03-30T23:55:59.895Z,12.20
2023-03-30T23:58:28.141Z,11.30
